sensor_id;sensor_type;location;lat;lon;timestamp;pressure;altitude;pressure_sealevel;temperature;humidity
51239;BME280;38154;47.548;18.828;2022-11-04T00:01:54;98529.50;;;9.41;100.00
51239;BME280;38154;47.548;18.828;2022-11-04T00:04:22;98526.91;;;9.41;100.00
51239;BME280;38154;47.548;18.828;2022-11-04T00:06:49;98521.69;;;9.38;100.00
51239;BME280;38154;47.548;18.828;2022-11-04T00:09:21;98520.81;;;9.34;100.00
51239;BME280;38154;47.548;18.828;2022-11-04T00:11:47;98516.47;;;9.30;100.00
51239;BME280;38154;47.548;18.828;2022-11-04T00:14:32;98499.13;;;9.29;100.00
51239;BME280;38154;47.548;18.828;2022-11-04T00:16:59;98499.97;;;9.28;100.00
51239;BME280;38154;47.548;18.828;2022-11-04T00:20:00;98492.19;;;9.23;100.00
51239;BME280;38154;47.548;18.828;2022-11-04T00:22:46;98487.81;;;9.19;100.00
51239;BME280;38154;47.548;18.828;2022-11-04T00:25:31;98491.28;;;9.20;100.00
51239;BME280;38154;47.548;18.828;2022-11-04T00:28:17;98493.03;;;9.22;100.00
51239;BME280;38154;47.548;18.828;2022-11-04T00:31:05;98481.78;;;9.22;100.00
51239;BME280;38154;47.548;18.828;2022-11-04T00:33:50;98482.59;;;9.16;100.00
51239;BME280;38154;47.548;18.828;2022-11-04T00:36:17;98485.22;;;9.16;100.00
51239;BME280;38154;47.548;18.828;2022-11-04T00:38:43;98478.28;;;9.15;100.00
51239;BME280;38154;47.548;18.828;2022-11-04T00:41:09;98481.72;;;9.13;100.00
51239;BME280;38154;47.548;18.828;2022-11-04T00:44:01;98461.78;;;9.05;100.00
51239;BME280;38154;47.548;18.828;2022-11-04T00:46:29;98460.03;;;9.04;100.00
51239;BME280;38154;47.548;18.828;2022-11-04T00:48:55;98462.63;;;9.03;100.00
51239;BME280;38154;47.548;18.828;2022-11-04T00:51:21;98458.28;;;8.94;100.00
51239;BME280;38154;47.548;18.828;2022-11-04T00:53:47;98448.75;;;8.98;100.00
51239;BME280;38154;47.548;18.828;2022-11-04T00:56:13;98444.44;;;8.97;100.00
51239;BME280;38154;47.548;18.828;2022-11-04T00:58:39;98442.66;;;8.89;100.00
51239;BME280;38154;47.548;18.828;2022-11-04T01:01:09;98467.81;;;8.89;100.00
51239;BME280;38154;47.548;18.828;2022-11-04T01:03:37;98448.75;;;8.95;100.00
51239;BME280;38154;47.548;18.828;2022-11-04T01:06:03;98445.28;;;8.93;100.00
51239;BME280;38154;47.548;18.828;2022-11-04T01:08:29;98453.06;;;8.93;100.00
51239;BME280;38154;47.548;18.828;2022-11-04T01:10:55;98457.41;;;8.90;100.00
51239;BME280;38154;47.548;18.828;2022-11-04T01:13:21;98467.81;;;8.89;100.00
51239;BME280;38154;47.548;18.828;2022-11-04T01:15:47;98460.87;;;8.89;100.00
51239;BME280;38154;47.548;18.828;2022-11-04T01:18:13;98441.78;;;8.87;100.00
51239;BME280;38154;47.548;18.828;2022-11-04T01:20:39;98470.41;;;8.90;100.00
51239;BME280;38154;47.548;18.828;2022-11-04T01:23:04;98449.62;;;8.90;100.00
51239;BME280;38154;47.548;18.828;2022-11-04T01:25:30;98427.97;;;8.91;100.00
51239;BME280;38154;47.548;18.828;2022-11-04T01:27:56;98433.13;;;8.87;100.00
51239;BME280;38154;47.548;18.828;2022-11-04T01:30:22;98424.47;;;8.83;100.00
51239;BME280;38154;47.548;18.828;2022-11-04T01:32:48;98417.53;;;8.85;100.00
51239;BME280;38154;47.548;18.828;2022-11-04T01:35:14;98425.31;;;8.84;100.00
51239;BME280;38154;47.548;18.828;2022-11-04T01:37:40;98412.31;;;8.81;100.00
51239;BME280;38154;47.548;18.828;2022-11-04T01:40:06;98414.91;;;8.81;100.00
51239;BME280;38154;47.548;18.828;2022-11-04T01:42:32;98416.66;;;8.82;100.00
51239;BME280;38154;47.548;18.828;2022-11-04T01:44:59;98404.53;;;8.81;100.00
51239;BME280;38154;47.548;18.828;2022-11-04T01:47:30;98401.91;;;8.82;100.00
51239;BME280;38154;47.548;18.828;2022-11-04T01:50:05;98412.31;;;8.78;100.00
51239;BME280;38154;47.548;18.828;2022-11-04T01:52:39;98401.91;;;8.82;100.00
51239;BME280;38154;47.548;18.828;2022-11-04T01:55:12;98394.13;;;8.82;100.00
51239;BME280;38154;47.548;18.828;2022-11-04T01:57:41;98399.34;;;8.85;100.00
51239;BME280;38154;47.548;18.828;2022-11-04T02:00:10;98389.78;;;8.86;100.00
51239;BME280;38154;47.548;18.828;2022-11-04T02:02:43;98379.41;;;8.86;100.00
51239;BME280;38154;47.548;18.828;2022-11-04T02:05:11;98383.72;;;8.85;100.00
51239;BME280;38154;47.548;18.828;2022-11-04T02:07:36;98372.47;;;8.80;100.00
51239;BME280;38154;47.548;18.828;2022-11-04T02:10:03;98388.91;;;8.81;100.00
51239;BME280;38154;47.548;18.828;2022-11-04T02:12:28;98394.13;;;8.85;100.00
51239;BME280;38154;47.548;18.828;2022-11-04T02:15:13;98381.12;;;8.82;100.00
51239;BME280;38154;47.548;18.828;2022-11-04T02:20:54;98360.31;;;8.79;100.00
51239;BME280;38154;47.548;18.828;2022-11-04T02:29:30;98345.59;;;8.87;100.00
51239;BME280;38154;47.548;18.828;2022-11-04T02:33:08;98336.94;;;8.90;100.00
51239;BME280;38154;47.548;18.828;2022-11-04T02:37:55;98336.94;;;8.88;100.00
51239;BME280;38154;47.548;18.828;2022-11-04T02:40:32;98342.13;;;8.79;100.00
51239;BME280;38154;47.548;18.828;2022-11-04T02:43:23;98339.53;;;8.82;100.00
51239;BME280;38154;47.548;18.828;2022-11-04T02:45:58;98343.88;;;8.80;100.00
51239;BME280;38154;47.548;18.828;2022-11-04T02:51:08;98354.25;;;8.86;100.00
51239;BME280;38154;47.548;18.828;2022-11-04T02:53:41;98348.19;;;8.87;100.00
51239;BME280;38154;47.548;18.828;2022-11-04T02:56:10;98350.81;;;8.87;100.00
51239;BME280;38154;47.548;18.828;2022-11-04T02:58:42;98344.75;;;8.90;100.00
51239;BME280;38154;47.548;18.828;2022-11-04T03:01:13;98332.63;;;8.98;100.00
51239;BME280;38154;47.548;18.828;2022-11-04T03:03:46;98339.56;;;9.04;100.00
51239;BME280;38154;47.548;18.828;2022-11-04T03:06:14;98315.25;;;9.06;100.00
51239;BME280;38154;47.548;18.828;2022-11-04T03:08:47;98321.34;;;9.07;100.00
51239;BME280;38154;47.548;18.828;2022-11-04T03:11:19;98310.94;;;9.02;100.00
51239;BME280;38154;47.548;18.828;2022-11-04T03:13:49;98288.41;;;8.95;100.00
51239;BME280;38154;47.548;18.828;2022-11-04T03:16:21;98282.34;;;8.90;100.00
51239;BME280;38154;47.548;18.828;2022-11-04T03:21:53;98271.94;;;8.88;100.00
51239;BME280;38154;47.548;18.828;2022-11-04T03:24:20;98275.41;;;8.89;100.00
51239;BME280;38154;47.548;18.828;2022-11-04T03:26:53;98262.41;;;8.89;100.00
51239;BME280;38154;47.548;18.828;2022-11-04T03:29:25;98271.94;;;8.85;100.00
51239;BME280;38154;47.548;18.828;2022-11-04T03:32:21;98263.25;;;8.86;100.00
51239;BME280;38154;47.548;18.828;2022-11-04T03:34:49;98267.59;;;8.80;100.00
51239;BME280;38154;47.548;18.828;2022-11-04T03:37:15;98249.41;;;8.78;100.00
51239;BME280;38154;47.548;18.828;2022-11-04T03:39:41;98233.81;;;8.77;100.00
51239;BME280;38154;47.548;18.828;2022-11-04T03:42:11;98235.53;;;8.76;100.00
51239;BME280;38154;47.548;18.828;2022-11-04T03:44:46;98219.09;;;8.76;100.00
51239;BME280;38154;47.548;18.828;2022-11-04T03:47:12;98224.28;;;8.69;100.00
51239;BME280;38154;47.548;18.828;2022-11-04T03:49:38;98214.75;;;8.67;100.00
51239;BME280;38154;47.548;18.828;2022-11-04T03:52:04;98206.97;;;8.65;100.00
51239;BME280;38154;47.548;18.828;2022-11-04T03:54:30;98211.31;;;8.63;100.00
51239;BME280;38154;47.548;18.828;2022-11-04T04:00:01;98219.94;;;8.58;100.00
51239;BME280;38154;47.548;18.828;2022-11-04T04:03:43;98205.22;;;8.63;100.00
51239;BME280;38154;47.548;18.828;2022-11-04T04:06:14;98227.75;;;8.59;100.00
51239;BME280;38154;47.548;18.828;2022-11-04T04:08:37;98217.37;;;8.53;100.00
51239;BME280;38154;47.548;18.828;2022-11-04T04:14:31;98228.62;;;8.58;100.00
51239;BME280;38154;47.548;18.828;2022-11-04T04:17:22;98224.28;;;8.63;100.00
51239;BME280;38154;47.548;18.828;2022-11-04T04:19:58;98211.28;;;8.54;100.00
51239;BME280;38154;47.548;18.828;2022-11-04T04:22:32;98210.41;;;8.52;100.00
51239;BME280;38154;47.548;18.828;2022-11-04T04:25:02;98202.63;;;8.50;100.00
51239;BME280;38154;47.548;18.828;2022-11-04T04:27:52;98202.63;;;8.58;100.00
51239;BME280;38154;47.548;18.828;2022-11-04T04:30:20;98205.22;;;8.53;100.00
51239;BME280;38154;47.548;18.828;2022-11-04T04:32:49;98211.28;;;8.54;100.00
51239;BME280;38154;47.548;18.828;2022-11-04T04:35:24;98219.06;;;8.49;100.00
51239;BME280;38154;47.548;18.828;2022-11-04T04:38:25;98212.09;;;8.42;100.00
51239;BME280;38154;47.548;18.828;2022-11-04T04:41:27;98208.69;;;8.45;100.00
51239;BME280;38154;47.548;18.828;2022-11-04T04:44:24;98209.50;;;8.42;100.00
51239;BME280;38154;47.548;18.828;2022-11-04T04:47:14;98206.03;;;8.34;100.00
51239;BME280;38154;47.548;18.828;2022-11-04T04:49:57;98208.66;;;8.37;100.00
51239;BME280;38154;47.548;18.828;2022-11-04T04:52:27;98203.44;;;8.35;100.00
51239;BME280;38154;47.548;18.828;2022-11-04T04:54:53;98191.31;;;8.42;100.00
51239;BME280;38154;47.548;18.828;2022-11-04T04:57:19;98198.25;;;8.40;100.00
51239;BME280;38154;47.548;18.828;2022-11-04T04:59:45;98197.41;;;8.43;100.00
51239;BME280;38154;47.548;18.828;2022-11-04T05:02:11;98203.44;;;8.39;100.00
51239;BME280;38154;47.548;18.828;2022-11-04T05:04:37;98197.41;;;8.36;100.00
51239;BME280;38154;47.548;18.828;2022-11-04T05:07:03;98192.19;;;8.29;100.00
51239;BME280;38154;47.548;18.828;2022-11-04T05:09:28;98187.84;;;8.29;100.00
51239;BME280;38154;47.548;18.828;2022-11-04T05:11:54;98193.91;;;8.27;100.00
51239;BME280;38154;47.548;18.828;2022-11-04T05:14:20;98206.03;;;8.28;100.00
51239;BME280;38154;47.548;18.828;2022-11-04T05:16:46;98194.75;;;8.23;100.00
51239;BME280;38154;47.548;18.828;2022-11-04T05:19:12;98191.31;;;8.21;100.00
51239;BME280;38154;47.548;18.828;2022-11-04T05:21:38;98187.84;;;8.23;100.00
51239;BME280;38154;47.548;18.828;2022-11-04T05:24:04;98191.31;;;8.24;100.00
51239;BME280;38154;47.548;18.828;2022-11-04T05:26:30;98176.59;;;8.27;100.00
51239;BME280;38154;47.548;18.828;2022-11-04T05:28:56;98166.19;;;8.24;100.00
51239;BME280;38154;47.548;18.828;2022-11-04T05:31:21;98169.69;;;8.25;100.00
51239;BME280;38154;47.548;18.828;2022-11-04T05:33:47;98181.81;;;8.20;100.00
51239;BME280;38154;47.548;18.828;2022-11-04T05:36:15;98187.84;;;8.23;100.00
51239;BME280;38154;47.548;18.828;2022-11-04T05:38:42;98188.69;;;8.19;100.00
51239;BME280;38154;47.548;18.828;2022-11-04T05:41:10;98196.50;;;8.14;100.00
51239;BME280;38154;47.548;18.828;2022-11-04T05:43:37;98208.63;;;8.17;100.00
51239;BME280;38154;47.548;18.828;2022-11-04T05:46:03;98209.50;;;8.14;100.00
51239;BME280;38154;47.548;18.828;2022-11-04T05:48:29;98218.97;;;8.09;100.00
51239;BME280;38154;47.548;18.828;2022-11-04T05:50:55;98206.91;;;8.33;100.00
51239;BME280;38154;47.548;18.828;2022-11-04T05:53:20;98204.31;;;8.42;100.00
51239;BME280;38154;47.548;18.828;2022-11-04T05:55:46;98209.50;;;8.34;100.00
51239;BME280;38154;47.548;18.828;2022-11-04T05:58:12;98203.44;;;8.25;100.00
51239;BME280;38154;47.548;18.828;2022-11-04T06:00:38;98206.91;;;8.24;100.00
51239;BME280;38154;47.548;18.828;2022-11-04T06:03:04;98202.56;;;8.21;100.00
51239;BME280;38154;47.548;18.828;2022-11-04T06:05:30;98202.56;;;8.18;100.00
51239;BME280;38154;47.548;18.828;2022-11-04T06:07:56;98212.09;;;8.13;100.00
51239;BME280;38154;47.548;18.828;2022-11-04T06:10:23;98209.50;;;8.24;100.00
51239;BME280;38154;47.548;18.828;2022-11-04T06:12:49;98213.84;;;8.34;100.00
51239;BME280;38154;47.548;18.828;2022-11-04T06:15:15;98214.75;;;8.48;100.00
51239;BME280;38154;47.548;18.828;2022-11-04T06:17:41;98214.75;;;8.50;100.00
51239;BME280;38154;47.548;18.828;2022-11-04T06:20:08;98208.69;;;8.43;100.00
51239;BME280;38154;47.548;18.828;2022-11-04T06:22:34;98199.16;;;8.48;100.00
51239;BME280;38154;47.548;18.828;2022-11-04T06:25:00;98193.09;;;8.52;100.00
51239;BME280;38154;47.548;18.828;2022-11-04T06:27:25;98190.47;;;8.66;100.00
51239;BME280;38154;47.548;18.828;2022-11-04T06:29:51;98204.34;;;8.64;100.00
51239;BME280;38154;47.548;18.828;2022-11-04T06:32:18;98211.28;;;8.66;100.00
51239;BME280;38154;47.548;18.828;2022-11-04T06:34:44;98212.16;;;8.65;100.00
51239;BME280;38154;47.548;18.828;2022-11-04T06:37:11;98205.22;;;8.73;100.00
51239;BME280;38154;47.548;18.828;2022-11-04T06:39:37;98196.53;;;8.78;100.00
51239;BME280;38154;47.548;18.828;2022-11-04T06:42:03;98196.53;;;8.84;100.00
51239;BME280;38154;47.548;18.828;2022-11-04T06:44:29;98194.78;;;9.07;100.00
51239;BME280;38154;47.548;18.828;2022-11-04T06:46:55;98192.97;;;9.40;100.00
51239;BME280;38154;47.548;18.828;2022-11-04T06:49:22;98198.78;;;9.92;100.00
51239;BME280;38154;47.548;18.828;2022-11-04T06:51:48;98192.41;;;10.40;100.00
51239;BME280;38154;47.548;18.828;2022-11-04T06:54:15;98181.81;;;10.67;100.00
51239;BME280;38154;47.548;18.828;2022-11-04T06:56:41;98180.00;;;10.72;100.00
51239;BME280;38154;47.548;18.828;2022-11-04T06:59:14;98184.91;;;11.06;100.00
51239;BME280;38154;47.548;18.828;2022-11-04T07:01:40;98193.53;;;11.92;100.00
51239;BME280;38154;47.548;18.828;2022-11-04T07:04:06;98202.75;;;12.72;100.00
51239;BME280;38154;47.548;18.828;2022-11-04T07:06:32;98201.09;;;12.68;100.00
51239;BME280;38154;47.548;18.828;2022-11-04T07:08:59;98211.47;;;12.74;100.00
51239;BME280;38154;47.548;18.828;2022-11-04T07:11:27;98211.88;;;12.48;100.00
51239;BME280;38154;47.548;18.828;2022-11-04T07:13:54;98211.31;;;12.27;100.00
51239;BME280;38154;47.548;18.828;2022-11-04T07:16:19;98207.50;;;12.47;100.00
51239;BME280;38154;47.548;18.828;2022-11-04T07:18:45;98207.41;;;12.54;100.00
51239;BME280;38154;47.548;18.828;2022-11-04T07:21:12;98213.19;;;12.17;100.00
51239;BME280;38154;47.548;18.828;2022-11-04T07:23:38;98220.19;;;12.15;100.00
51239;BME280;38154;47.548;18.828;2022-11-04T07:26:06;98223.41;;;12.34;100.00
51239;BME280;38154;47.548;18.828;2022-11-04T07:28:33;98230.34;;;11.68;100.00
51239;BME280;38154;47.548;18.828;2022-11-04T07:31:01;98238.41;;;11.48;100.00
51239;BME280;38154;47.548;18.828;2022-11-04T07:33:28;98242.25;;;11.13;100.00
51239;BME280;38154;47.548;18.828;2022-11-04T07:35:54;98229.19;;;11.15;100.00
51239;BME280;38154;47.548;18.828;2022-11-04T07:38:21;98222.34;;;11.02;100.00
51239;BME280;38154;47.548;18.828;2022-11-04T07:40:47;98220.69;;;10.96;100.00
51239;BME280;38154;47.548;18.828;2022-11-04T07:43:14;98217.34;;;10.79;100.00
51239;BME280;38154;47.548;18.828;2022-11-04T07:45:41;98208.81;;;10.61;100.00
51239;BME280;38154;47.548;18.828;2022-11-04T07:48:07;98213.22;;;10.51;100.00
51239;BME280;38154;47.548;18.828;2022-11-04T07:50:33;98207.22;;;10.38;100.00
51239;BME280;38154;47.548;18.828;2022-11-04T07:52:59;98214.22;;;10.32;100.00
51239;BME280;38154;47.548;18.828;2022-11-04T07:55:25;98212.59;;;10.12;100.00
51239;BME280;38154;47.548;18.828;2022-11-04T07:57:53;98206.53;;;10.07;100.00
51239;BME280;38154;47.548;18.828;2022-11-04T08:00:19;98209.06;;;10.15;100.00
51239;BME280;38154;47.548;18.828;2022-11-04T08:02:45;98223.75;;;10.30;100.00
51239;BME280;38154;47.548;18.828;2022-11-04T08:05:14;98220.28;;;10.34;100.00
51239;BME280;38154;47.548;18.828;2022-11-04T08:07:41;98221.09;;;10.42;100.00
51239;BME280;38154;47.548;18.828;2022-11-04T08:10:07;98207.22;;;10.38;100.00
51239;BME280;38154;47.548;18.828;2022-11-04T08:12:33;98201.22;;;10.26;100.00
51239;BME280;38154;47.548;18.828;2022-11-04T08:14:59;98195.03;;;10.40;100.00
51239;BME280;38154;47.548;18.828;2022-11-04T08:17:25;98187.19;;;10.44;100.00
51239;BME280;38154;47.548;18.828;2022-11-04T08:19:51;98190.56;;;10.58;100.00
51239;BME280;38154;47.548;18.828;2022-11-04T08:22:17;98195.56;;;10.84;100.00
51239;BME280;38154;47.548;18.828;2022-11-04T08:24:42;98199.69;;;11.08;100.00
51239;BME280;38154;47.548;18.828;2022-11-04T08:27:12;98192.63;;;11.17;100.00
51239;BME280;38154;47.548;18.828;2022-11-04T08:29:38;98193.34;;;11.29;100.00
51239;BME280;38154;47.548;18.828;2022-11-04T08:32:06;98193.47;;;11.20;100.00
51239;BME280;38154;47.548;18.828;2022-11-04T08:34:32;98192.38;;;11.40;100.00
51239;BME280;38154;47.548;18.828;2022-11-04T08:36:58;98192.50;;;11.27;100.00
51239;BME280;38154;47.548;18.828;2022-11-04T08:39:25;98188.75;;;10.69;100.00
51239;BME280;38154;47.548;18.828;2022-11-04T08:41:51;98189.50;;;10.81;100.00
51239;BME280;38154;47.548;18.828;2022-11-04T08:44:18;98187.81;;;10.76;100.00
51239;BME280;38154;47.548;18.828;2022-11-04T08:46:45;98185.19;;;10.80;100.00
51239;BME280;38154;47.548;18.828;2022-11-04T08:49:11;98186.66;;;11.04;100.00
51239;BME280;38154;47.548;18.828;2022-11-04T08:51:40;98186.47;;;11.24;100.00
51239;BME280;38154;47.548;18.828;2022-11-04T08:54:06;98182.69;;;11.49;100.00
51239;BME280;38154;47.548;18.828;2022-11-04T08:56:35;98171.28;;;11.57;100.00
51239;BME280;38154;47.548;18.828;2022-11-04T08:59:02;98157.09;;;11.76;100.00
51239;BME280;38154;47.548;18.828;2022-11-04T09:01:31;98155.22;;;11.86;100.00
51239;BME280;38154;47.548;18.828;2022-11-04T09:03:57;98144.16;;;11.70;100.00
51239;BME280;38154;47.548;18.828;2022-11-04T09:06:27;98145.69;;;11.85;100.00
51239;BME280;38154;47.548;18.828;2022-11-04T09:08:53;98135.25;;;11.85;100.00
51239;BME280;38154;47.548;18.828;2022-11-04T09:11:26;98133.53;;;11.82;100.00
51239;BME280;38154;47.548;18.828;2022-11-04T09:13:52;98132.28;;;11.43;100.00
51239;BME280;38154;47.548;18.828;2022-11-04T09:16:18;98132.28;;;11.44;100.00
51239;BME280;38154;47.548;18.828;2022-11-04T09:18:44;98139.50;;;11.22;100.00
51239;BME280;38154;47.548;18.828;2022-11-04T09:21:11;98129.28;;;11.02;100.00
51239;BME280;38154;47.548;18.828;2022-11-04T09:23:37;98124.44;;;10.68;100.00
51239;BME280;38154;47.548;18.828;2022-11-04T09:26:12;98124.72;;;10.37;100.00
51239;BME280;38154;47.548;18.828;2022-11-04T09:28:39;98122.28;;;10.10;100.00
51239;BME280;38154;47.548;18.828;2022-11-04T09:31:06;98123.25;;;9.96;100.00
51239;BME280;38154;47.548;18.828;2022-11-04T09:33:33;98131.03;;;10.01;100.00
51239;BME280;38154;47.548;18.828;2022-11-04T09:35:59;98121.44;;;10.06;100.00
51239;BME280;38154;47.548;18.828;2022-11-04T09:38:25;98118.81;;;10.12;100.00
51239;BME280;38154;47.548;18.828;2022-11-04T09:40:51;98110.16;;;10.07;100.00
51239;BME280;38154;47.548;18.828;2022-11-04T09:46:21;98105.63;;;10.31;100.00
51239;BME280;38154;47.548;18.828;2022-11-04T09:48:53;98102.97;;;10.38;100.00
51239;BME280;38154;47.548;18.828;2022-11-04T09:51:23;98100.44;;;10.26;100.00
51239;BME280;38154;47.548;18.828;2022-11-04T09:53:57;98096.25;;;10.08;100.00
51239;BME280;38154;47.548;18.828;2022-11-04T09:56:28;98084.00;;;10.18;100.00
51239;BME280;38154;47.548;18.828;2022-11-04T09:58:56;98083.16;;;10.17;100.00
51239;BME280;38154;47.548;18.828;2022-11-04T10:01:39;98081.28;;;10.36;100.00
51239;BME280;38154;47.548;18.828;2022-11-04T10:04:36;98080.28;;;10.50;100.00
51239;BME280;38154;47.548;18.828;2022-11-04T10:10:12;98086.09;;;10.78;100.00
51239;BME280;38154;47.548;18.828;2022-11-04T10:13:08;98089.47;;;10.88;100.00
51239;BME280;38154;47.548;18.828;2022-11-04T10:15:43;98093.09;;;10.73;100.00
51239;BME280;38154;47.548;18.828;2022-11-04T10:18:22;98083.69;;;10.56;100.00
51239;BME280;38154;47.548;18.828;2022-11-04T10:23:38;98059.22;;;10.70;100.00
51239;BME280;38154;47.548;18.828;2022-11-04T10:26:17;98060.84;;;10.80;100.00
51239;BME280;38154;47.548;18.828;2022-11-04T10:29:00;98060.09;;;10.67;100.00
51239;BME280;38154;47.548;18.828;2022-11-04T10:31:27;98062.63;;;10.76;100.00
51239;BME280;38154;47.548;18.828;2022-11-04T10:33:57;98062.44;;;10.93;100.00
51239;BME280;38154;47.548;18.828;2022-11-04T10:36:25;98057.28;;;10.89;100.00
51239;BME280;38154;47.548;18.828;2022-11-04T10:38:54;98057.41;;;10.78;100.00
51239;BME280;38154;47.548;18.828;2022-11-04T10:43:57;98052.31;;;10.66;100.00
51239;BME280;38154;47.548;18.828;2022-11-04T10:51:38;98047.13;;;10.64;100.00
51239;BME280;38154;47.548;18.828;2022-11-04T10:54:04;98043.78;;;10.53;100.00
51239;BME280;38154;47.548;18.828;2022-11-04T10:56:40;98044.59;;;10.56;100.00
51239;BME280;38154;47.548;18.828;2022-11-04T11:01:47;98044.41;;;10.75;100.00
51239;BME280;38154;47.548;18.828;2022-11-04T11:04:30;98031.38;;;10.73;100.00
51239;BME280;38154;47.548;18.828;2022-11-04T11:06:59;98030.25;;;10.96;100.00
51239;BME280;38154;47.548;18.828;2022-11-04T11:09:28;98029.84;;;11.27;100.00
51239;BME280;38154;47.548;18.828;2022-11-04T11:12:01;98027.87;;;11.43;100.00
51239;BME280;38154;47.548;18.828;2022-11-04T11:16:54;98040.47;;;11.75;100.00
51239;BME280;38154;47.548;18.828;2022-11-04T11:19:22;98038.75;;;11.73;100.00
51239;BME280;38154;47.548;18.828;2022-11-04T11:21:54;98036.19;;;11.68;100.00
51239;BME280;38154;47.548;18.828;2022-11-04T11:24:26;98034.13;;;11.93;100.00
51239;BME280;38154;47.548;18.828;2022-11-04T11:26:54;98024.56;;;11.92;100.00
51239;BME280;38154;47.548;18.828;2022-11-04T11:29:26;98015.25;;;11.73;100.00
51239;BME280;38154;47.548;18.828;2022-11-04T11:31:54;98006.44;;;11.80;100.00
51239;BME280;38154;47.548;18.828;2022-11-04T11:34:27;98007.31;;;11.80;100.00
51239;BME280;38154;47.548;18.828;2022-11-04T11:36:56;98005.56;;;11.79;100.00
51239;BME280;38154;47.548;18.828;2022-11-04T11:39:29;98007.03;;;11.99;100.00
51239;BME280;38154;47.548;18.828;2022-11-04T11:44:27;98000.62;;;12.18;100.00
51239;BME280;38154;47.548;18.828;2022-11-04T11:47:02;97999.03;;;12.08;100.00
51239;BME280;38154;47.548;18.828;2022-11-04T11:49:33;97998.00;;;12.18;100.00
51239;BME280;38154;47.548;18.828;2022-11-04T11:52:35;97999.13;;;12.03;100.00
51239;BME280;38154;47.548;18.828;2022-11-04T11:55:19;97984.31;;;12.04;100.00
51239;BME280;38154;47.548;18.828;2022-11-04T12:00:29;97979.47;;;12.31;100.00
51239;BME280;38154;47.548;18.828;2022-11-04T12:03:23;97970.94;;;12.21;100.00
51239;BME280;38154;47.548;18.828;2022-11-04T12:06:01;97964.88;;;12.19;100.00
51239;BME280;38154;47.548;18.828;2022-11-04T12:08:47;97956.28;;;12.12;100.00
51239;BME280;38154;47.548;18.828;2022-11-04T12:11:40;97953.31;;;11.79;100.00
51239;BME280;38154;47.548;18.828;2022-11-04T12:14:34;97949.44;;;11.50;100.00
51239;BME280;38154;47.548;18.828;2022-11-04T12:17:17;97947.91;;;11.37;100.00
51239;BME280;38154;47.548;18.828;2022-11-04T12:32:09;97890.22;;;12.05;100.00
51239;BME280;38154;47.548;18.828;2022-11-04T12:34:59;97891.28;;;11.95;100.00
51239;BME280;38154;47.548;18.828;2022-11-04T12:38:17;97870.25;;;12.01;100.00
51239;BME280;38154;47.548;18.828;2022-11-04T12:40:56;97871.06;;;12.05;100.00
51239;BME280;38154;47.548;18.828;2022-11-04T12:46:18;97859.97;;;12.37;100.00
51239;BME280;38154;47.548;18.828;2022-11-04T12:49:12;97864.75;;;12.59;100.00
51239;BME280;38154;47.548;18.828;2022-11-04T12:52:02;97875.03;;;12.67;100.00
51239;BME280;38154;47.548;18.828;2022-11-04T12:57:54;97860.66;;;12.86;100.00
51239;BME280;38154;47.548;18.828;2022-11-04T13:00:23;97864.53;;;12.68;100.00
51239;BME280;38154;47.548;18.828;2022-11-04T13:03:12;97859.56;;;12.56;100.00
51239;BME280;38154;47.548;18.828;2022-11-04T13:05:43;97849.44;;;12.40;100.00
51239;BME280;38154;47.548;18.828;2022-11-04T13:11:32;97837.22;;;12.41;100.00
51239;BME280;38154;47.548;18.828;2022-11-04T13:16:31;97833.56;;;12.06;100.00
51239;BME280;38154;47.548;18.828;2022-11-04T13:18:59;97830.53;;;11.81;100.00
51239;BME280;38154;47.548;18.828;2022-11-04T13:21:31;97832.50;;;11.69;100.00
51239;BME280;38154;47.548;18.828;2022-11-04T13:24:05;97827.44;;;11.62;100.00
51239;BME280;38154;47.548;18.828;2022-11-04T13:26:37;97832.94;;;11.46;100.00
51239;BME280;38154;47.548;18.828;2022-11-04T13:29:08;97815.97;;;11.19;100.00
51239;BME280;38154;47.548;18.828;2022-11-04T13:31:41;97817.31;;;10.90;100.00
51239;BME280;38154;47.548;18.828;2022-11-04T13:34:47;97812.41;;;10.69;100.00
51239;BME280;38154;47.548;18.828;2022-11-04T13:39:41;97800.41;;;10.57;100.00
51239;BME280;38154;47.548;18.828;2022-11-04T13:42:26;97805.56;;;10.62;100.00
51239;BME280;38154;47.548;18.828;2022-11-04T13:44:57;97811.53;;;10.70;100.00
51239;BME280;38154;47.548;18.828;2022-11-04T13:47:34;97822.75;;;10.75;100.00
51239;BME280;38154;47.548;18.828;2022-11-04T13:50:01;97821.81;;;10.79;100.00
51239;BME280;38154;47.548;18.828;2022-11-04T13:52:30;97815.81;;;10.72;100.00
51239;BME280;38154;47.548;18.828;2022-11-04T13:55:00;97804.75;;;10.60;100.00
51239;BME280;38154;47.548;18.828;2022-11-04T13:57:29;97792.69;;;10.51;100.00
51239;BME280;38154;47.548;18.828;2022-11-04T14:03:37;97792.75;;;10.48;100.00
51239;BME280;38154;47.548;18.828;2022-11-04T14:06:04;97792.63;;;10.54;100.00
51239;BME280;38154;47.548;18.828;2022-11-04T14:08:31;97784.91;;;10.49;100.00
51239;BME280;38154;47.548;18.828;2022-11-04T14:11:02;97787.59;;;10.43;100.00
51239;BME280;38154;47.548;18.828;2022-11-04T14:16:06;97798.16;;;10.31;100.00
51239;BME280;38154;47.548;18.828;2022-11-04T14:18:42;97792.97;;;10.29;100.00
51239;BME280;38154;47.548;18.828;2022-11-04T14:23:41;97787.12;;;10.10;100.00
51239;BME280;38154;47.548;18.828;2022-11-04T14:26:11;97785.41;;;10.09;100.00
51239;BME280;38154;47.548;18.828;2022-11-04T14:28:40;97771.38;;;10.21;100.00
51239;BME280;38154;47.548;18.828;2022-11-04T14:31:09;97773.94;;;10.24;100.00
51239;BME280;38154;47.548;18.828;2022-11-04T14:33:50;97778.25;;;10.25;100.00